createdAt,value
2022-10-05T00:01:28.529Z,78.01
2022-10-05T00:04:15.802Z,78.54
2022-10-05T00:06:58.785Z,78.39
2022-10-05T00:09:28.952Z,78.56
2022-10-05T00:11:59.187Z,78.36
2022-10-05T00:14:35.367Z,78.39
2022-10-05T00:17:08.160Z,78.72
2022-10-05T00:19:45.366Z,78.35
2022-10-05T00:22:19.711Z,78.48
2022-10-05T00:24:52.653Z,78.40
2022-10-05T00:27:25.599Z,78.75
2022-10-05T00:30:00.617Z,78.33
2022-10-05T00:32:33.782Z,78.39
2022-10-05T00:35:07.159Z,78.21
2022-10-05T00:37:37.930Z,78.22
2022-10-05T00:40:25.474Z,78.39
2022-10-05T00:43:06.089Z,78.57
2022-10-05T00:45:43.531Z,78.22
2022-10-05T00:48:23.343Z,78.48
2022-10-05T00:51:10.580Z,78.29
2022-10-05T00:53:51.607Z,78.59
2022-10-05T00:56:33.589Z,78.39
2022-10-05T00:59:17.901Z,78.37
2022-10-05T01:01:51.987Z,78.63
2022-10-05T01:04:38.224Z,78.78
2022-10-05T01:07:19.213Z,78.58
2022-10-05T01:09:59.607Z,78.60
2022-10-05T01:12:35.641Z,78.61
2022-10-05T01:15:10.749Z,78.62
2022-10-05T01:17:45.231Z,78.74
2022-10-05T01:20:26.532Z,78.59
2022-10-05T01:23:27.267Z,78.97
2022-10-05T01:26:19.541Z,79.02
2022-10-05T01:28:59.966Z,78.75
2022-10-05T01:31:39.237Z,79.40
2022-10-05T01:34:22.377Z,79.59
2022-10-05T01:37:01.618Z,79.51
2022-10-05T01:39:39.753Z,79.15
2022-10-05T01:42:20.542Z,79.39
2022-10-05T01:45:03.517Z,79.29
2022-10-05T01:47:40.426Z,79.43
2022-10-05T01:50:16.047Z,79.39
2022-10-05T01:52:55.799Z,79.54
2022-10-05T01:55:32.255Z,79.25
2022-10-05T01:58:12.178Z,79.49
2022-10-05T02:00:56.541Z,79.03
2022-10-05T02:03:30.830Z,79.24
2022-10-05T02:06:10.546Z,79.79
2022-10-05T02:08:47.048Z,79.56
2022-10-05T02:11:21.983Z,79.39
2022-10-05T02:13:56.086Z,79.77
2022-10-05T02:16:36.348Z,79.71
2022-10-05T02:19:16.014Z,79.31
2022-10-05T02:21:49.752Z,79.42
2022-10-05T02:24:25.247Z,79.65
2022-10-05T02:26:59.555Z,79.51
2022-10-05T02:29:33.588Z,79.90
2022-10-05T02:32:10.032Z,79.69
2022-10-05T02:34:43.653Z,79.42
2022-10-05T02:37:37.219Z,79.83
2022-10-05T02:40:22.060Z,80.12
2022-10-05T02:43:01.239Z,80.03
2022-10-05T02:45:43.732Z,79.91
2022-10-05T02:48:27.907Z,79.80
2022-10-05T02:51:04.644Z,80.26
2022-10-05T02:53:42.187Z,80.05
2022-10-05T02:56:22.218Z,80.11
2022-10-05T02:59:00.873Z,80.21
2022-10-05T03:01:38.999Z,80.08
2022-10-05T03:04:30.389Z,80.35
2022-10-05T03:07:14.069Z,79.95
2022-10-05T03:09:50.756Z,80.41
2022-10-05T03:12:34.707Z,80.31
2022-10-05T03:15:21.443Z,80.38
2022-10-05T03:18:05.000Z,79.94
2022-10-05T03:20:47.012Z,80.30
2022-10-05T03:23:28.253Z,80.15
2022-10-05T03:26:12.591Z,79.94
2022-10-05T03:28:51.565Z,80.11
2022-10-05T03:31:29.208Z,80.05
2022-10-05T03:34:03.398Z,80.33
2022-10-05T03:36:44.932Z,80.13
2022-10-05T03:39:23.324Z,80.02
2022-10-05T03:42:01.078Z,80.41
2022-10-05T03:44:45.443Z,79.95
2022-10-05T03:47:25.501Z,80.11
2022-10-05T03:50:12.127Z,79.89
2022-10-05T03:52:53.745Z,79.85
2022-10-05T03:55:31.040Z,80.31
2022-10-05T03:58:06.010Z,80.18
2022-10-05T04:00:37.348Z,79.89
2022-10-05T04:03:14.111Z,79.87
2022-10-05T04:05:53.210Z,80.01
2022-10-05T04:08:38.221Z,79.96
2022-10-05T04:11:15.105Z,79.94
2022-10-05T04:13:56.812Z,79.69
2022-10-05T04:16:31.156Z,79.90
2022-10-05T04:19:07.906Z,79.64
2022-10-05T04:21:49.772Z,79.94
2022-10-05T04:24:29.141Z,79.88
2022-10-05T04:27:10.672Z,80.19
2022-10-05T04:29:47.561Z,79.84
2022-10-05T04:32:38.428Z,79.94
2022-10-05T04:35:33.299Z,80.15
2022-10-05T04:38:22.842Z,80.19
2022-10-05T04:41:11.147Z,80.42
2022-10-05T04:43:55.115Z,80.16
2022-10-05T04:46:37.531Z,80.13
2022-10-05T04:49:25.666Z,80.21
2022-10-05T04:52:03.977Z,80.57
2022-10-05T04:54:50.806Z,80.28
2022-10-05T04:57:29.687Z,80.25
2022-10-05T05:00:09.162Z,80.23
2022-10-05T05:02:53.295Z,80.21
2022-10-05T05:05:53.125Z,79.96
2022-10-05T05:08:46.621Z,79.73
2022-10-05T05:11:31.189Z,79.61
2022-10-05T05:14:31.452Z,80.03
2022-10-05T05:17:18.017Z,79.65
2022-10-05T05:19:59.817Z,79.66
2022-10-05T05:22:40.150Z,79.25
2022-10-05T05:25:30.828Z,79.19
2022-10-05T05:28:09.373Z,79.04
2022-10-05T05:30:52.181Z,79.17
2022-10-05T05:33:25.156Z,78.89
2022-10-05T05:36:11.803Z,78.69
2022-10-05T05:38:49.408Z,78.49
2022-10-05T05:41:28.547Z,78.12
2022-10-05T05:44:08.822Z,77.82
2022-10-05T05:47:02.816Z,77.95
2022-10-05T05:49:45.016Z,77.63
2022-10-05T05:52:25.593Z,77.19
2022-10-05T05:55:01.013Z,76.28
2022-10-05T05:57:37.951Z,75.27
2022-10-05T06:00:19.305Z,74.44
2022-10-05T06:02:58.622Z,73.36
2022-10-05T06:05:35.383Z,72.42
2022-10-05T06:08:15.282Z,70.55
2022-10-05T06:10:49.821Z,68.94
2022-10-05T06:13:25.460Z,67.84
2022-10-05T06:16:01.404Z,67.14
2022-10-05T06:18:36.310Z,65.22
2022-10-05T06:21:17.414Z,63.49
2022-10-05T06:23:51.782Z,61.81
2022-10-05T06:26:32.169Z,60.40
2022-10-05T06:29:08.586Z,59.38
2022-10-05T06:32:02.767Z,58.30
2022-10-05T06:34:56.590Z,56.28
2022-10-05T06:37:38.484Z,54.65
2022-10-05T06:40:26.104Z,52.63
2022-10-05T06:43:15.781Z,51.00
2022-10-05T06:46:03.644Z,50.09
2022-10-05T06:48:49.902Z,50.83
2022-10-05T06:51:32.275Z,51.83
2022-10-05T06:54:11.716Z,53.68
2022-10-05T06:56:48.646Z,54.57
2022-10-05T06:59:25.592Z,55.58
2022-10-05T07:02:08.087Z,57.18
2022-10-05T07:04:52.710Z,58.50
2022-10-05T07:07:35.548Z,59.41
2022-10-05T07:10:20.478Z,58.25
2022-10-05T07:13:08.886Z,56.38
2022-10-05T07:15:47.873Z,55.29
2022-10-05T07:18:44.427Z,52.94
2022-10-05T07:21:26.305Z,50.64
2022-10-05T07:24:07.033Z,50.82
2022-10-05T07:26:42.671Z,49.75
2022-10-05T07:29:26.616Z,49.96
2022-10-05T07:32:06.468Z,50.11
2022-10-05T07:34:48.755Z,49.11
2022-10-05T07:37:39.250Z,49.48
2022-10-05T07:40:18.655Z,50.47
2022-10-05T07:43:02.612Z,51.97
2022-10-05T07:45:40.829Z,52.94
2022-10-05T07:48:18.642Z,52.75
2022-10-05T07:51:00.688Z,52.77
2022-10-05T07:53:39.356Z,52.40
2022-10-05T07:56:22.344Z,52.18
2022-10-05T07:59:01.805Z,51.42
2022-10-05T08:01:35.584Z,51.29
2022-10-05T08:04:09.278Z,50.31
2022-10-05T08:06:50.801Z,50.34
2022-10-05T08:09:33.080Z,51.72
2022-10-05T08:12:21.978Z,52.90
2022-10-05T08:14:59.062Z,53.33
2022-10-05T08:17:44.247Z,53.12
2022-10-05T08:20:33.784Z,52.19
2022-10-05T08:23:13.823Z,50.78
2022-10-05T08:25:53.265Z,50.39
2022-10-05T08:28:30.875Z,51.15
2022-10-05T08:31:09.735Z,51.81
2022-10-05T08:33:53.151Z,52.88
2022-10-05T08:36:31.163Z,52.82
2022-10-05T08:39:08.162Z,52.38
2022-10-05T08:42:13.915Z,52.56
2022-10-05T08:45:18.027Z,53.78
2022-10-05T08:48:12.662Z,54.34
2022-10-05T08:51:30.001Z,54.51
2022-10-05T08:54:44.390Z,53.57
2022-10-05T08:57:50.566Z,53.08
2022-10-05T09:00:25.544Z,52.93
2022-10-05T09:03:18.859Z,53.56
2022-10-05T09:06:20.021Z,52.89
2022-10-05T09:09:26.074Z,53.75
2022-10-05T09:12:14.410Z,52.61
2022-10-05T09:15:20.477Z,51.88
2022-10-05T09:18:21.550Z,51.86
2022-10-05T09:20:55.829Z,51.49
2022-10-05T09:23:43.024Z,51.49
2022-10-05T09:26:46.574Z,52.10
2022-10-05T09:29:49.410Z,53.75
2022-10-05T09:32:41.525Z,54.45
2022-10-05T09:35:36.042Z,55.37
2022-10-05T09:38:23.484Z,55.75
2022-10-05T09:41:26.909Z,56.18
2022-10-05T09:44:29.282Z,55.67
2022-10-05T09:47:24.121Z,55.48
2022-10-05T09:50:07.716Z,54.24
2022-10-05T09:53:07.590Z,53.81
2022-10-05T09:56:15.453Z,53.86
2022-10-05T09:59:15.809Z,52.30
2022-10-05T10:02:07.386Z,51.14
2022-10-05T10:05:05.793Z,50.39
2022-10-05T10:08:10.259Z,49.82
2022-10-05T10:11:06.751Z,50.67
2022-10-05T10:14:00.276Z,51.63
2022-10-05T10:16:49.949Z,50.53
2022-10-05T10:20:03.339Z,49.06
2022-10-05T10:22:57.576Z,49.19
2022-10-05T10:25:57.240Z,48.20
2022-10-05T10:28:46.250Z,47.34
2022-10-05T10:31:37.727Z,45.42
2022-10-05T10:34:31.666Z,45.04
2022-10-05T10:37:25.171Z,42.70
2022-10-05T10:40:20.727Z,43.36
2022-10-05T10:43:12.015Z,43.81
2022-10-05T10:45:54.555Z,42.83
2022-10-05T10:48:59.899Z,40.20
2022-10-05T10:52:04.742Z,40.21
2022-10-05T10:55:09.123Z,39.83
2022-10-05T10:57:54.066Z,40.71
2022-10-05T11:00:46.693Z,41.10
2022-10-05T11:03:52.745Z,40.46
2022-10-05T11:06:38.082Z,42.07
2022-10-05T11:09:33.886Z,42.05
2022-10-05T11:13:05.478Z,42.74
2022-10-05T11:16:08.981Z,43.98
2022-10-05T11:18:55.004Z,43.73
2022-10-05T11:21:36.879Z,43.56
2022-10-05T11:24:43.030Z,43.20
2022-10-05T11:27:55.300Z,44.88
2022-10-05T11:30:59.116Z,44.77
2022-10-05T11:33:55.480Z,45.07
2022-10-05T11:37:04.148Z,44.27
2022-10-05T11:39:49.434Z,43.93
2022-10-05T11:42:49.261Z,43.81
2022-10-05T11:45:25.938Z,43.84
2022-10-05T11:48:20.444Z,43.59
2022-10-05T11:51:16.291Z,41.99
2022-10-05T11:53:57.730Z,41.26
2022-10-05T11:56:35.599Z,41.21
2022-10-05T11:59:19.089Z,41.25
2022-10-05T12:01:56.775Z,41.60
2022-10-05T12:04:39.267Z,41.24
2022-10-05T12:07:24.225Z,41.98
2022-10-05T12:10:17.768Z,41.89
2022-10-05T12:13:01.741Z,41.25
2022-10-05T12:15:36.137Z,41.09
2022-10-05T12:18:09.235Z,41.86
2022-10-05T12:20:46.863Z,43.21
2022-10-05T12:23:25.913Z,42.35
2022-10-05T12:26:04.986Z,42.92
2022-10-05T12:28:40.780Z,44.10
2022-10-05T12:31:23.847Z,44.25
2022-10-05T12:34:01.873Z,45.04
2022-10-05T12:37:02.981Z,44.06
2022-10-05T12:39:43.767Z,44.14
2022-10-05T12:42:28.944Z,43.26
2022-10-05T12:45:29.660Z,44.45
2022-10-05T12:48:26.487Z,43.67
2022-10-05T12:51:03.699Z,43.46
2022-10-05T12:53:53.257Z,44.38
2022-10-05T12:56:43.319Z,44.37
2022-10-05T12:59:20.827Z,44.19
2022-10-05T13:01:57.528Z,44.79
2022-10-05T13:04:38.691Z,45.02
2022-10-05T13:07:31.788Z,45.20
2022-10-05T13:10:17.276Z,46.18
2022-10-05T13:12:59.268Z,44.81
2022-10-05T13:15:34.193Z,45.08
2022-10-05T13:18:18.240Z,43.81
2022-10-05T13:20:54.352Z,44.16
2022-10-05T13:23:31.523Z,44.21
2022-10-05T13:26:12.114Z,44.44
2022-10-05T13:28:51.131Z,44.31
2022-10-05T13:31:24.753Z,43.82
2022-10-05T13:34:04.007Z,43.51
2022-10-05T13:36:48.581Z,43.41
2022-10-05T13:39:34.442Z,44.96
2022-10-05T13:42:13.881Z,44.74
2022-10-05T13:44:52.657Z,44.95
2022-10-05T13:47:32.062Z,45.10
2022-10-05T13:50:08.649Z,44.35
2022-10-05T13:52:49.937Z,45.28
2022-10-05T13:55:38.335Z,44.07
2022-10-05T13:58:15.466Z,43.91
2022-10-05T14:00:53.868Z,44.69
2022-10-05T14:03:35.109Z,44.31
2022-10-05T14:06:08.593Z,43.64
2022-10-05T14:08:52.024Z,44.59
2022-10-05T14:11:29.759Z,44.63
2022-10-05T14:14:10.347Z,45.17
2022-10-05T14:16:51.222Z,45.05
2022-10-05T14:19:27.290Z,45.69
2022-10-05T14:22:03.094Z,45.95
2022-10-05T14:24:44.239Z,45.76
2022-10-05T14:27:26.246Z,45.44
2022-10-05T14:30:03.088Z,45.75
2022-10-05T14:32:46.129Z,46.25
2022-10-05T14:35:19.656Z,46.75
2022-10-05T14:37:57.687Z,46.48
2022-10-05T14:40:34.027Z,46.17
2022-10-05T14:43:22.527Z,46.73
2022-10-05T14:46:01.553Z,46.99
2022-10-05T14:48:45.567Z,47.72
2022-10-05T14:51:32.099Z,48.02
2022-10-05T14:54:04.457Z,48.96
2022-10-05T14:56:48.450Z,48.63
2022-10-05T15:00:00.320Z,50.10
2022-10-05T15:02:56.654Z,50.91
2022-10-05T15:05:34.378Z,51.15
2022-10-05T15:08:17.624Z,51.98
2022-10-05T15:10:55.914Z,49.54
2022-10-05T15:13:31.318Z,50.65
2022-10-05T15:16:08.101Z,51.56
2022-10-05T15:18:46.116Z,52.62
2022-10-05T15:21:35.618Z,52.65
2022-10-05T15:24:09.458Z,53.09
2022-10-05T15:26:47.978Z,53.28
2022-10-05T15:29:31.426Z,54.17
2022-10-05T15:32:14.878Z,54.47
2022-10-05T15:34:56.707Z,55.29
2022-10-05T15:37:39.805Z,55.35
2022-10-05T15:40:19.193Z,56.49
2022-10-05T15:42:49.334Z,56.82
2022-10-05T15:45:30.208Z,57.81
2022-10-05T15:48:03.966Z,58.12
2022-10-05T15:50:42.409Z,59.09
2022-10-05T15:53:23.606Z,59.92
2022-10-05T15:55:58.826Z,60.19
2022-10-05T15:58:44.348Z,61.10
2022-10-05T16:01:20.925Z,62.31
2022-10-05T16:04:02.474Z,63.50
2022-10-05T16:06:56.518Z,64.04
2022-10-05T16:09:47.904Z,64.33
2022-10-05T16:12:31.537Z,65.13
2022-10-05T16:15:26.677Z,65.78
2022-10-05T16:18:35.608Z,66.74
2022-10-05T16:21:20.277Z,66.83
2022-10-05T16:24:07.195Z,67.57
2022-10-05T16:26:54.396Z,67.93
2022-10-05T16:29:39.150Z,68.43
2022-10-05T16:32:15.123Z,68.70
2022-10-05T16:35:02.149Z,69.21
2022-10-05T16:37:42.076Z,69.44
2022-10-05T16:40:30.110Z,69.69
2022-10-05T16:43:16.202Z,69.94
2022-10-05T16:45:56.544Z,70.10
2022-10-05T16:48:29.044Z,70.25
2022-10-05T16:51:18.678Z,70.39
2022-10-05T16:54:01.488Z,70.84
2022-10-05T16:56:45.189Z,70.62
2022-10-05T16:59:44.531Z,71.04
2022-10-05T17:02:31.794Z,70.92
2022-10-05T17:05:15.737Z,71.24
2022-10-05T17:08:20.477Z,71.31
2022-10-05T17:11:06.711Z,71.48
2022-10-05T17:14:08.444Z,71.57
2022-10-05T17:16:54.186Z,72.06
2022-10-05T17:19:34.725Z,72.04
2022-10-05T17:22:15.143Z,72.22
2022-10-05T17:24:55.176Z,72.88
2022-10-05T17:27:35.409Z,72.75
2022-10-05T17:30:41.511Z,72.80
2022-10-05T17:33:27.726Z,72.77
2022-10-05T17:36:21.414Z,72.93
2022-10-05T17:38:55.155Z,73.18
2022-10-05T17:41:33.069Z,73.05
2022-10-05T17:44:30.923Z,73.37
2022-10-05T17:47:04.129Z,73.44
2022-10-05T17:50:10.767Z,74.05
2022-10-05T17:53:01.270Z,73.93
2022-10-05T17:56:04.651Z,73.90
2022-10-05T17:59:00.335Z,74.21
2022-10-05T18:01:38.413Z,74.15
2022-10-05T18:04:42.445Z,74.34
2022-10-05T18:07:22.870Z,74.19
2022-10-05T18:10:02.060Z,74.22
2022-10-05T18:12:45.523Z,74.53
2022-10-05T18:15:35.831Z,74.45
2022-10-05T18:18:38.912Z,74.40
2022-10-05T18:21:28.194Z,74.55
2022-10-05T18:24:28.019Z,74.47
2022-10-05T18:27:10.047Z,74.30
2022-10-05T18:30:05.780Z,74.87
2022-10-05T18:32:57.171Z,74.53
2022-10-05T18:35:37.325Z,74.66
2022-10-05T18:38:23.872Z,74.68
2022-10-05T18:41:07.015Z,74.93
2022-10-05T18:43:45.963Z,74.59
2022-10-05T18:46:37.298Z,74.89
2022-10-05T18:49:23.885Z,74.89
2022-10-05T18:52:02.073Z,74.54
2022-10-05T18:54:45.368Z,74.70
2022-10-05T18:57:55.825Z,74.66
2022-10-05T19:00:27.461Z,74.80
2022-10-05T19:03:06.399Z,74.56
2022-10-05T19:05:52.553Z,74.78
2022-10-05T19:08:33.714Z,74.64
2022-10-05T19:11:13.521Z,74.54
2022-10-05T19:13:54.969Z,74.47
2022-10-05T19:16:47.263Z,74.58
2022-10-05T19:19:44.786Z,74.79
2022-10-05T19:22:26.907Z,74.95
2022-10-05T19:25:16.189Z,74.51
2022-10-05T19:28:00.216Z,74.22
2022-10-05T19:30:47.041Z,74.49
2022-10-05T19:33:47.656Z,74.35
2022-10-05T19:36:45.536Z,74.37
2022-10-05T19:39:24.963Z,74.72
2022-10-05T19:42:10.816Z,74.36
2022-10-05T19:44:56.934Z,74.73
2022-10-05T19:47:43.534Z,74.75
2022-10-05T19:50:30.255Z,74.44
2022-10-05T19:53:08.276Z,74.61
2022-10-05T19:55:41.804Z,74.58
2022-10-05T19:58:23.604Z,74.45
2022-10-05T20:01:02.319Z,74.66
2022-10-05T20:03:38.113Z,74.26
2022-10-05T20:06:13.746Z,74.35
2022-10-05T20:08:48.463Z,74.54
2022-10-05T20:11:21.440Z,74.22
2022-10-05T20:14:21.729Z,74.44
2022-10-05T20:17:33.311Z,74.62
2022-10-05T20:20:33.175Z,74.66
2022-10-05T20:23:21.322Z,74.75
2022-10-05T20:26:11.618Z,74.75
2022-10-05T20:28:42.038Z,74.34
2022-10-05T20:31:14.685Z,74.72
2022-10-05T20:33:48.576Z,74.37
2022-10-05T20:36:22.399Z,74.33
2022-10-05T20:38:52.862Z,74.25
2022-10-05T20:41:23.019Z,74.33
2022-10-05T20:43:55.950Z,74.46
2022-10-05T20:46:27.009Z,74.57
2022-10-05T20:48:59.866Z,74.13
2022-10-05T20:51:33.015Z,74.35
2022-10-05T20:54:03.190Z,74.44
2022-10-05T20:56:33.334Z,74.21
2022-10-05T20:59:08.689Z,74.19
2022-10-05T21:01:38.916Z,74.08
2022-10-05T21:04:11.051Z,74.08
2022-10-05T21:06:43.987Z,74.13
2022-10-05T21:09:14.948Z,74.40
2022-10-05T21:11:45.418Z,74.67
2022-10-05T21:14:16.682Z,74.77
2022-10-05T21:16:49.534Z,74.90
2022-10-05T21:19:20.190Z,74.48
2022-10-05T21:21:52.971Z,74.53
2022-10-05T21:24:23.209Z,74.93
2022-10-05T21:26:57.753Z,75.01
2022-10-05T21:29:28.200Z,74.86
2022-10-05T21:31:59.516Z,75.11
2022-10-05T21:34:32.415Z,74.96
2022-10-05T21:37:05.261Z,74.62
2022-10-05T21:39:37.796Z,74.67
2022-10-05T21:42:08.112Z,75.01
2022-10-05T21:44:38.462Z,74.58
2022-10-05T21:47:09.501Z,74.72
2022-10-05T21:49:39.891Z,75.31
2022-10-05T21:52:13.849Z,74.87
2022-10-05T21:54:44.099Z,75.13
2022-10-05T21:57:15.493Z,74.92
2022-10-05T21:59:46.496Z,75.32
2022-10-05T22:02:16.592Z,75.19
2022-10-05T22:04:46.826Z,75.03
2022-10-05T22:07:22.670Z,74.96
2022-10-05T22:09:53.499Z,75.59
2022-10-05T22:12:24.680Z,75.11
2022-10-05T22:14:54.886Z,75.25
2022-10-05T22:17:28.330Z,75.62
2022-10-05T22:19:59.123Z,75.89
2022-10-05T22:22:33.296Z,75.93
2022-10-05T22:25:04.740Z,75.54
2022-10-05T22:27:36.249Z,75.97
2022-10-05T22:30:08.192Z,75.57
2022-10-05T22:32:38.439Z,75.80
2022-10-05T22:35:11.698Z,75.70
2022-10-05T22:37:50.136Z,75.94
2022-10-05T22:40:20.581Z,75.79
2022-10-05T22:42:50.687Z,75.76
2022-10-05T22:45:20.882Z,75.46
2022-10-05T22:47:53.990Z,75.96
2022-10-05T22:50:24.402Z,76.14
2022-10-05T22:52:57.116Z,76.19
2022-10-05T22:55:29.738Z,76.26
2022-10-05T22:57:59.873Z,75.89
2022-10-05T23:00:56.437Z,76.45
2022-10-05T23:03:22.746Z,76.08
2022-10-05T23:06:00.271Z,76.41
2022-10-05T23:08:33.351Z,76.16
2022-10-05T23:11:07.462Z,76.10
2022-10-05T23:13:37.406Z,76.27
2022-10-05T23:16:11.693Z,76.32
2022-10-05T23:18:42.784Z,76.05
2022-10-05T23:21:17.763Z,76.33
2022-10-05T23:23:53.768Z,76.34
2022-10-05T23:26:25.905Z,76.22
2022-10-05T23:28:56.028Z,76.62
2022-10-05T23:31:29.001Z,76.54
2022-10-05T23:33:59.157Z,76.65
2022-10-05T23:36:32.367Z,77.02
2022-10-05T23:39:05.190Z,76.72
2022-10-05T23:41:35.444Z,76.56
2022-10-05T23:44:05.619Z,77.07
2022-10-05T23:46:35.850Z,76.79
2022-10-05T23:49:07.139Z,77.17
2022-10-05T23:51:40.290Z,77.40
2022-10-05T23:54:12.998Z,77.26
2022-10-05T23:56:43.172Z,77.81
2022-10-05T23:59:13.255Z,77.60
